Time;durP1;ratioP1;P1;durP2;ratioP2;P2;SDS_P1;SDS_P2;PMS_P1;PMS_P2;Temp;Humidity;BMP_temperature;BMP_pressure;BME280_temperature;BME280_humidity;BME280_pressure;Samples;Min_cycle;Max_cycle;Signal;HPM_P1;HPM_P2
2023/07/06 00:01:48;;;;;;;16.48;3.65;;;42.00;28.80;;;;;;5068645;28;20480;-63
2023/07/06 00:04:21;;;;;;;20.13;4.20;;;42.00;30.10;;;;;;5067426;28;20029;-63
2023/07/06 00:06:51;;;;;;;12.90;3.28;;;41.90;29.90;;;;;;5061772;28;20039;-61
2023/07/06 00:09:19;;;;;;;23.52;3.60;;;41.90;29.90;;;;;;5063741;28;20020;-63
2023/07/06 00:11:49;;;;;;;16.00;3.38;;;41.90;30.20;;;;;;5066904;28;20024;-65
2023/07/06 00:14:16;;;;;;;13.63;3.65;;;41.70;30.50;;;;;;5067667;28;20017;-62
2023/07/06 00:16:51;;;;;;;12.30;3.47;;;41.70;31.50;;;;;;5070350;28;20063;-62
2023/07/06 00:19:19;;;;;;;11.73;3.75;;;41.70;31.60;;;;;;5070588;28;20084;-64
2023/07/06 00:21:45;;;;;;;11.43;3.08;;;41.60;31.80;;;;;;5066976;28;20107;-63
2023/07/06 00:24:11;;;;;;;18.25;3.58;;;41.50;32.40;;;;;;5083007;28;20024;-61
2023/07/06 00:26:38;;;;;;;11.85;3.40;;;41.50;32.00;;;;;;5083353;28;20025;-62
2023/07/06 00:29:05;;;;;;;12.63;3.25;;;41.50;31.80;;;;;;5065852;28;20028;-62
2023/07/06 00:31:32;;;;;;;11.85;3.05;;;41.40;30.90;;;;;;5067597;28;20077;-64
2023/07/06 00:34:04;;;;;;;13.07;3.20;;;41.30;31.00;;;;;;5067082;28;20384;-64
2023/07/06 00:36:37;;;;;;;11.98;3.10;;;41.30;30.70;;;;;;5067262;28;20028;-63
2023/07/06 00:39:04;;;;;;;14.23;3.50;;;41.30;30.50;;;;;;5069732;28;20028;-63
2023/07/06 00:41:32;;;;;;;16.38;3.50;;;41.20;30.50;;;;;;5064953;28;20111;-62
2023/07/06 00:44:00;;;;;;;16.58;3.03;;;41.10;30.20;;;;;;5064869;28;20019;-66
2023/07/06 00:46:33;;;;;;;24.25;3.97;;;41.10;30.60;;;;;;5065085;28;20032;-63
2023/07/06 00:49:03;;;;;;;22.20;3.30;;;41.00;30.30;;;;;;5065249;28;20050;-65
2023/07/06 00:51:37;;;;;;;27.45;4.10;;;41.00;30.00;;;;;;5066605;28;20032;-63
2023/07/06 00:54:12;;;;;;;27.98;3.22;;;40.90;29.40;;;;;;5064084;28;20404;-62
2023/07/06 00:56:42;;;;;;;10.50;2.53;;;40.90;29.50;;;;;;5064455;28;20024;-60
2023/07/06 00:59:15;;;;;;;12.27;3.17;;;40.90;29.30;;;;;;5082650;28;20054;-59
2023/07/06 01:01:44;;;;;;;9.20;2.70;;;40.90;29.40;;;;;;5084293;28;20024;-61
2023/07/06 01:04:13;;;;;;;13.25;3.15;;;40.80;29.40;;;;;;5086445;28;20077;-64
2023/07/06 01:06:50;;;;;;;22.52;3.70;;;40.80;29.40;;;;;;5084489;28;20058;-61
2023/07/06 01:09:19;;;;;;;13.90;3.50;;;40.70;29.60;;;;;;5084693;28;20578;-60
2023/07/06 01:11:47;;;;;;;16.60;3.30;;;40.70;29.70;;;;;;5085797;28;20095;-61
2023/07/06 01:14:14;;;;;;;32.55;3.67;;;40.60;29.70;;;;;;5082651;28;20018;-64
2023/07/06 01:16:59;;;;;;;26.70;3.13;;;40.50;29.70;;;;;;5083661;28;20026;-60
2023/07/06 01:20:04;;;;;;;23.02;3.38;;;40.40;29.80;;;;;;5083089;28;20012;-60
2023/07/06 01:22:59;;;;;;;26.65;3.88;;;40.30;30.10;;;;;;5083456;28;20061;-62
2023/07/06 01:25:51;;;;;;;19.83;3.22;;;40.30;29.80;;;;;;5083365;28;20138;-63
2023/07/06 01:28:40;;;;;;;21.00;3.35;;;40.20;29.80;;;;;;5083049;28;20095;-61
2023/07/06 01:31:43;;;;;;;14.82;3.17;;;40.10;29.60;;;;;;5064674;28;20383;-62
2023/07/06 01:34:54;;;;;;;19.10;3.65;;;40.00;29.60;;;;;;5083320;28;20012;-62
2023/07/06 01:37:47;;;;;;;27.70;3.63;;;39.90;30.00;;;;;;5064991;28;20065;-63
2023/07/06 01:40:13;;;;;;;18.08;3.13;;;39.90;29.80;;;;;;5079419;28;20105;-59
2023/07/06 01:42:42;;;;;;;12.40;2.80;;;39.90;29.40;;;;;;5092827;22;20057;-63
2023/07/06 01:45:16;;;;;;;23.00;3.42;;;39.80;29.80;;;;;;5036444;28;20032;-61
2023/07/06 01:47:48;;;;;;;20.63;3.35;;;39.80;30.00;;;;;;5049334;28;20031;-62
2023/07/06 01:50:18;;;;;;;18.85;3.50;;;39.80;30.20;;;;;;5048576;28;20018;-63
2023/07/06 01:52:54;;;;;;;22.60;3.17;;;39.70;30.50;;;;;;5047715;28;20010;-62
2023/07/06 01:55:35;;;;;;;7.88;2.75;;;39.50;29.70;;;;;;5047533;28;20024;-61
2023/07/06 01:58:12;;;;;;;16.38;2.80;;;39.40;29.40;;;;;;5050569;28;20025;-61
2023/07/06 02:00:47;;;;;;;12.18;2.80;;;39.40;28.80;;;;;;5047105;28;20017;-61
2023/07/06 02:03:15;;;;;;;18.67;3.33;;;39.30;29.40;;;;;;5024175;28;20637;-62
2023/07/06 02:05:42;;;;;;;19.20;3.63;;;39.20;30.20;;;;;;5043765;28;20064;-61
2023/07/06 02:08:10;;;;;;;17.73;2.97;;;39.10;30.60;;;;;;5048243;28;20013;-63
2023/07/06 02:10:38;;;;;;;15.95;3.15;;;39.00;30.80;;;;;;5048656;28;20044;-64
2023/07/06 02:13:04;;;;;;;16.75;2.38;;;38.90;29.90;;;;;;5048181;28;20016;-62
2023/07/06 02:15:31;;;;;;;16.30;3.13;;;38.70;29.50;;;;;;5048024;28;20023;-62
2023/07/06 02:17:58;;;;;;;11.40;2.72;;;38.60;29.90;;;;;;5051589;28;20019;-62
2023/07/06 02:20:24;;;;;;;13.40;3.20;;;38.50;30.40;;;;;;5049435;28;20049;-63
2023/07/06 02:22:51;;;;;;;18.73;3.40;;;38.40;31.10;;;;;;5053215;28;20071;-63
2023/07/06 02:25:18;;;;;;;19.27;4.88;;;38.30;31.50;;;;;;5058356;28;20097;-65
2023/07/06 02:27:46;;;;;;;9.57;3.30;;;38.30;32.30;;;;;;5062782;28;20032;-62
2023/07/06 02:30:12;;;;;;;18.35;4.65;;;38.20;31.80;;;;;;5066464;28;20013;-64
2023/07/06 02:32:42;;;;;;;14.50;3.83;;;38.10;32.10;;;;;;5064245;28;20048;-62
2023/07/06 02:35:10;;;;;;;13.60;3.60;;;38.00;32.30;;;;;;5058022;28;20132;-64
2023/07/06 02:37:38;;;;;;;20.92;3.80;;;38.00;32.90;;;;;;5068185;28;20020;-64
2023/07/06 02:40:08;;;;;;;8.57;3.17;;;37.90;33.70;;;;;;5067813;28;20058;-63
2023/07/06 02:42:35;;;;;;;17.50;3.00;;;37.80;33.90;;;;;;5065047;28;20067;-63
2023/07/06 02:45:04;;;;;;;12.98;3.25;;;37.70;34.00;;;;;;5067007;28;20034;-63
2023/07/06 02:47:31;;;;;;;16.30;3.95;;;37.60;34.60;;;;;;5071930;28;20004;-62
2023/07/06 02:49:58;;;;;;;20.27;3.90;;;37.60;35.20;;;;;;5071729;28;20043;-62
2023/07/06 02:52:25;;;;;;;18.77;3.53;;;37.50;35.30;;;;;;5069540;28;20035;-62
2023/07/06 02:54:53;;;;;;;33.10;4.10;;;37.40;36.00;;;;;;5073686;28;20430;-60
2023/07/06 02:57:20;;;;;;;20.33;3.97;;;37.30;36.40;;;;;;5073231;28;20054;-60
2023/07/06 02:59:46;;;;;;;10.70;3.67;;;37.10;36.70;;;;;;5073678;28;20039;-58
2023/07/06 03:02:13;;;;;;;18.40;4.20;;;37.00;37.00;;;;;;5073294;28;20055;-56
2023/07/06 03:04:39;;;;;;;18.77;4.82;;;37.00;37.00;;;;;;5067291;28;20055;-61
2023/07/06 03:07:06;;;;;;;20.60;4.22;;;36.90;36.80;;;;;;5073732;28;20069;-63
2023/07/06 03:09:32;;;;;;;20.90;4.40;;;36.90;36.70;;;;;;5073210;28;20428;-61
2023/07/06 03:11:59;;;;;;;21.42;4.38;;;36.70;36.40;;;;;;5074621;28;20035;-60
2023/07/06 03:14:25;;;;;;;11.88;4.00;;;36.60;36.20;;;;;;5052054;28;20058;-59
2023/07/06 03:16:55;;;;;;;14.00;3.67;;;36.50;36.20;;;;;;5074345;28;20055;-57
2023/07/06 03:19:22;;;;;;;17.58;3.63;;;36.40;36.70;;;;;;5075518;28;20168;-57
2023/07/06 03:21:48;;;;;;;24.50;4.03;;;36.40;37.40;;;;;;5072324;28;20466;-59
2023/07/06 03:24:15;;;;;;;18.83;4.20;;;36.30;37.10;;;;;;5072530;28;20048;-59
2023/07/06 03:26:43;;;;;;;24.33;4.55;;;36.20;37.10;;;;;;5071622;28;20075;-59
2023/07/06 03:29:13;;;;;;;19.08;4.30;;;36.20;37.10;;;;;;5070136;28;20051;-60
2023/07/06 03:31:40;;;;;;;24.55;4.45;;;36.00;36.70;;;;;;5074701;28;20047;-59
2023/07/06 03:34:07;;;;;;;25.17;4.38;;;35.90;37.10;;;;;;5072133;28;20050;-59
2023/07/06 03:36:35;;;;;;;26.58;4.40;;;35.80;37.10;;;;;;5072013;28;20064;-60
2023/07/06 03:39:02;;;;;;;22.50;3.97;;;35.80;37.40;;;;;;5071631;28;20142;-57
2023/07/06 03:41:29;;;;;;;13.65;3.88;;;35.70;38.00;;;;;;5066063;28;20074;-61
2023/07/06 03:43:58;;;;;;;24.63;3.70;;;35.70;38.40;;;;;;5073612;28;20090;-60
2023/07/06 03:46:26;;;;;;;20.65;4.05;;;35.70;38.10;;;;;;5072871;28;20070;-60
2023/07/06 03:48:55;;;;;;;19.23;4.18;;;35.70;38.10;;;;;;5076120;28;20111;-59
2023/07/06 03:51:21;;;;;;;14.90;3.63;;;35.60;37.50;;;;;;5072240;28;20047;-58
2023/07/06 03:53:47;;;;;;;20.13;3.90;;;35.60;37.90;;;;;;5070539;28;20062;-60
2023/07/06 03:56:18;;;;;;;16.95;4.18;;;35.50;37.70;;;;;;5071765;28;20768;-58
2023/07/06 03:58:44;;;;;;;20.08;4.15;;;35.40;38.20;;;;;;5070672;28;20056;-59
2023/07/06 04:01:11;;;;;;;20.88;4.47;;;35.40;38.80;;;;;;5075003;28;20109;-56
2023/07/06 04:03:37;;;;;;;17.80;4.45;;;35.30;38.70;;;;;;5072175;28;20059;-53
2023/07/06 04:06:04;;;;;;;19.92;4.45;;;35.30;38.90;;;;;;5070974;28;20107;-60
2023/07/06 04:08:32;;;;;;;12.73;3.33;;;35.20;38.90;;;;;;5072045;28;20449;-60
2023/07/06 04:10:58;;;;;;;18.45;4.35;;;35.20;39.10;;;;;;5073547;28;20144;-58
2023/07/06 04:13:24;;;;;;;23.67;7.55;;;35.20;39.10;;;;;;5071175;28;20055;-59
2023/07/06 04:15:52;;;;;;;19.15;5.60;;;35.00;38.50;;;;;;5071838;28;20054;-57
2023/07/06 04:18:18;;;;;;;20.55;6.47;;;35.00;39.30;;;;;;5074846;28;20084;-58
2023/07/06 04:20:46;;;;;;;29.80;11.63;;;35.00;39.10;;;;;;5073579;28;20055;-61
2023/07/06 04:23:13;;;;;;;37.05;22.00;;;35.00;38.10;;;;;;5070294;28;20054;-58
2023/07/06 04:25:39;;;;;;;43.40;25.77;;;34.90;34.30;;;;;;5072722;28;20071;-59
2023/07/06 04:28:10;;;;;;;37.00;23.13;;;34.90;33.30;;;;;;5074127;28;20417;-59
2023/07/06 04:30:39;;;;;;;37.22;18.17;;;34.90;33.40;;;;;;5055162;28;20140;-62
2023/07/06 04:33:09;;;;;;;39.92;16.92;;;34.80;35.60;;;;;;5069919;28;20054;-61
2023/07/06 04:35:36;;;;;;;42.60;27.15;;;34.80;35.90;;;;;;5052390;28;20062;-58
2023/07/06 04:38:03;;;;;;;50.22;25.33;;;34.70;33.30;;;;;;5072064;28;20140;-59
2023/07/06 04:40:30;;;;;;;38.47;14.05;;;34.70;34.20;;;;;;5071878;28;20089;-60
2023/07/06 04:42:56;;;;;;;19.92;7.50;;;34.60;36.80;;;;;;5072008;28;20481;-59
2023/07/06 04:45:25;;;;;;;35.90;12.30;;;34.60;38.80;;;;;;5071976;28;20049;-57
2023/07/06 04:47:53;;;;;;;28.85;12.02;;;34.50;37.60;;;;;;5071321;28;20066;-60
2023/07/06 04:50:24;;;;;;;38.38;16.98;;;34.50;37.50;;;;;;5070164;28;20071;-62
2023/07/06 04:53:03;;;;;;;37.55;17.85;;;34.50;35.80;;;;;;5070379;28;20138;-54
2023/07/06 04:55:31;;;;;;;51.17;25.33;;;34.50;34.40;;;;;;5067036;28;20062;-55
2023/07/06 04:58:00;;;;;;;56.15;30.27;;;34.30;32.20;;;;;;5069410;28;20076;-58
2023/07/06 05:00:31;;;;;;;52.92;31.17;;;34.40;29.70;;;;;;5073499;28;20059;-54
2023/07/06 05:03:03;;;;;;;51.20;32.55;;;34.30;28.80;;;;;;5072798;28;20447;-60
2023/07/06 05:05:36;;;;;;;55.92;36.40;;;34.30;27.70;;;;;;5073384;28;20086;-59
2023/07/06 05:08:03;;;;;;;56.00;34.97;;;34.20;26.70;;;;;;5069116;28;20513;-58
2023/07/06 05:10:36;;;;;;;53.72;34.35;;;34.20;27.10;;;;;;5067667;28;20071;-60
2023/07/06 05:13:06;;;;;;;53.83;36.88;;;34.20;26.80;;;;;;5051859;28;20060;-58
2023/07/06 05:15:34;;;;;;;54.95;35.70;;;34.10;26.50;;;;;;5053616;28;20083;-56
2023/07/06 05:18:01;;;;;;;54.85;35.45;;;34.20;26.20;;;;;;5053749;28;20086;-65
2023/07/06 05:20:30;;;;;;;65.00;37.65;;;34.20;25.80;;;;;;5050845;28;20115;-64
2023/07/06 05:23:05;;;;;;;77.60;35.92;;;34.20;25.60;;;;;;5067695;28;20071;-65
2023/07/06 05:25:38;;;;;;;64.78;35.90;;;34.20;26.50;;;;;;5051509;28;20075;-64
2023/07/06 05:28:04;;;;;;;53.42;35.08;;;34.20;26.40;;;;;;5052288;28;20551;-63
2023/07/06 05:30:31;;;;;;;51.20;32.65;;;34.20;26.10;;;;;;5046705;28;20489;-64
2023/07/06 05:33:01;;;;;;;48.50;32.25;;;34.10;25.90;;;;;;5050713;28;20052;-61
2023/07/06 05:35:28;;;;;;;54.42;30.90;;;34.10;25.80;;;;;;5050563;28;20054;-64
2023/07/06 05:38:00;;;;;;;44.78;30.67;;;34.10;26.30;;;;;;5047413;28;20110;-63
2023/07/06 05:40:28;;;;;;;48.97;30.02;;;34.00;26.20;;;;;;5053923;28;20061;-59
2023/07/06 05:42:55;;;;;;;42.85;28.08;;;34.00;27.00;;;;;;5052364;28;20626;-63
2023/07/06 05:45:42;;;;;;;48.38;29.05;;;33.80;26.40;;;;;;5050209;28;20208;-63
2023/07/06 05:48:10;;;;;;;46.05;29.20;;;33.80;27.50;;;;;;5052463;28;20158;-65
2023/07/06 05:50:36;;;;;;;45.53;30.00;;;33.70;26.70;;;;;;5047994;28;20067;-63
2023/07/06 05:53:10;;;;;;;41.80;27.58;;;33.70;27.70;;;;;;5052045;28;20117;-65
2023/07/06 05:55:48;;;;;;;47.20;25.40;;;33.60;27.60;;;;;;5052768;28;20449;-64
2023/07/06 05:58:16;;;;;;;38.53;23.83;;;33.50;27.50;;;;;;5049603;28;20154;-65
2023/07/06 06:00:43;;;;;;;49.97;24.05;;;33.40;27.40;;;;;;5049205;28;20061;-65
2023/07/06 06:03:12;;;;;;;47.20;25.13;;;33.30;27.50;;;;;;5045314;28;20059;-63
2023/07/06 06:05:45;;;;;;;32.38;22.05;;;33.30;28.60;;;;;;5051109;28;20075;-65
2023/07/06 06:08:24;;;;;;;39.60;20.67;;;33.00;28.10;;;;;;5049379;28;20529;-61
2023/07/06 06:10:51;;;;;;;38.47;21.08;;;32.90;28.10;;;;;;5045573;28;20094;-62
2023/07/06 06:13:18;;;;;;;37.90;20.75;;;32.90;28.80;;;;;;5040045;28;20063;-63
2023/07/06 06:15:45;;;;;;;32.72;19.48;;;32.80;29.30;;;;;;5040146;28;20070;-65
2023/07/06 06:18:29;;;;;;;32.90;18.70;;;32.70;28.60;;;;;;5039912;28;20073;-63
2023/07/06 06:21:08;;;;;;;38.75;17.92;;;32.70;28.90;;;;;;5044331;28;20633;-58
2023/07/06 06:23:34;;;;;;;42.13;17.63;;;32.70;29.80;;;;;;5050684;28;20075;-63
2023/07/06 06:26:01;;;;;;;35.88;16.58;;;32.70;29.70;;;;;;5049823;28;20087;-63
2023/07/06 06:28:28;;;;;;;24.60;15.75;;;32.60;29.10;;;;;;5049615;28;20062;-65
2023/07/06 06:30:55;;;;;;;37.30;14.32;;;32.40;29.30;;;;;;5051095;28;20076;-57
2023/07/06 06:33:25;;;;;;;27.02;15.05;;;32.30;29.20;;;;;;5048681;28;20145;-63
2023/07/06 06:35:52;;;;;;;30.15;15.30;;;32.30;30.00;;;;;;5049557;28;20075;-60
2023/07/06 06:38:24;;;;;;;37.13;15.40;;;32.20;28.90;;;;;;5050368;28;20087;-65
2023/07/06 06:40:51;;;;;;;29.42;14.60;;;32.10;29.40;;;;;;5049531;28;20067;-65
2023/07/06 06:43:18;;;;;;;29.02;13.77;;;32.00;29.40;;;;;;5046074;28;20209;-63
2023/07/06 06:45:45;;;;;;;28.40;14.02;;;32.00;30.90;;;;;;5040117;28;20081;-64
2023/07/06 06:48:14;;;;;;;28.58;14.82;;;32.00;30.60;;;;;;5044811;28;20098;-64
2023/07/06 06:50:54;;;;;;;36.28;14.25;;;31.90;31.20;;;;;;5070603;28;20550;-64
2023/07/06 06:53:27;;;;;;;42.83;16.05;;;31.80;31.40;;;;;;5044878;28;20119;-63
2023/07/06 06:55:55;;;;;;;35.30;14.25;;;31.70;30.60;;;;;;5028461;28;20086;-66
2023/07/06 06:58:23;;;;;;;33.00;14.20;;;31.60;31.30;;;;;;5043931;28;20632;-64
2023/07/06 07:04:16;;;;;;;29.48;14.10;;;31.50;31.10;;;;;;5062532;28;20093;-64
2023/07/06 07:06:43;;;;;;;27.15;12.25;;;31.40;31.40;;;;;;5050412;28;20098;-66
2023/07/06 07:09:19;;;;;;;36.47;13.73;;;31.40;31.40;;;;;;5050974;28;20070;-63
2023/07/06 07:11:46;;;;;;;29.75;13.10;;;31.40;30.80;;;;;;5049003;28;20141;-65
2023/07/06 07:14:18;;;;;;;32.42;12.93;;;31.30;30.50;;;;;;5038631;28;20453;-63
2023/07/06 07:17:03;;;;;;;29.23;12.80;;;31.30;30.70;;;;;;5039364;28;20191;-64
2023/07/06 07:19:30;;;;;;;38.63;13.98;;;31.20;31.90;;;;;;5043071;28;20120;-64
2023/07/06 07:22:00;;;;;;;27.83;12.90;;;31.10;31.90;;;;;;5066119;28;20086;-63
2023/07/06 07:24:30;;;;;;;32.90;14.13;;;31.00;31.50;;;;;;5068701;28;20179;-65
2023/07/06 07:26:57;;;;;;;33.42;14.45;;;30.90;31.60;;;;;;5064485;28;20461;-65
2023/07/06 07:29:24;;;;;;;30.30;14.18;;;30.90;31.20;;;;;;5066415;28;20074;-63
2023/07/06 07:31:51;;;;;;;30.02;13.70;;;30.90;31.20;;;;;;5061644;28;20083;-63
2023/07/06 07:34:18;;;;;;;32.28;14.02;;;30.90;32.70;;;;;;5062024;28;20066;-62
2023/07/06 07:36:45;;;;;;;28.08;12.55;;;30.70;30.80;;;;;;5066479;28;20071;-64
2023/07/06 07:39:14;;;;;;;257.75;21.15;;;30.70;31.60;;;;;;5060503;28;20103;-63
2023/07/06 07:41:45;;;;;;;43.15;14.32;;;30.70;31.00;;;;;;5063691;28;20487;-62
2023/07/06 07:44:12;;;;;;;90.55;15.15;;;30.60;30.40;;;;;;5067106;28;20109;-66
2023/07/06 07:46:39;;;;;;;48.50;12.77;;;30.50;30.50;;;;;;5063872;28;20101;-63
2023/07/06 07:49:07;;;;;;;30.15;12.27;;;30.40;30.30;;;;;;5063474;28;20140;-64
2023/07/06 07:51:33;;;;;;;32.88;12.85;;;30.30;30.50;;;;;;5066492;28;20596;-63
2023/07/06 07:53:59;;;;;;;23.27;11.52;;;30.30;31.20;;;;;;5066027;28;20105;-61
2023/07/06 07:56:27;;;;;;;36.15;12.05;;;30.20;31.10;;;;;;5057702;28;20075;-63
2023/07/06 07:58:53;;;;;;;25.85;11.38;;;30.20;30.60;;;;;;5066089;28;20087;-64
2023/07/06 08:01:24;;;;;;;22.92;10.35;;;30.10;30.60;;;;;;5067371;28;20078;-63
2023/07/06 08:03:54;;;;;;;28.30;10.48;;;30.10;31.30;;;;;;5060859;28;20470;-64
2023/07/06 08:06:22;;;;;;;26.98;9.90;;;30.10;31.20;;;;;;5062644;28;20087;-63
2023/07/06 08:08:48;;;;;;;23.55;10.45;;;30.10;31.10;;;;;;5070356;28;20089;-65
2023/07/06 08:11:20;;;;;;;36.60;9.88;;;29.90;30.30;;;;;;5059350;28;20131;-65
2023/07/06 08:13:50;;;;;;;22.88;10.57;;;29.90;31.20;;;;;;5065344;28;20075;-64
2023/07/06 08:16:19;;;;;;;22.88;10.35;;;29.90;30.90;;;;;;5050786;28;20079;-64
2023/07/06 08:18:48;;;;;;;34.63;10.23;;;29.80;30.70;;;;;;5069515;28;20091;-64
2023/07/06 08:21:15;;;;;;;24.67;10.27;;;29.80;30.80;;;;;;5064178;28;20119;-63
2023/07/06 08:23:48;;;;;;;28.25;9.10;;;29.70;30.00;;;;;;5065607;28;20137;-63
2023/07/06 08:26:15;;;;;;;28.15;9.57;;;29.60;30.20;;;;;;5042699;28;20869;-64
2023/07/06 08:28:41;;;;;;;27.80;9.25;;;29.60;30.20;;;;;;5068849;28;20082;-63
2023/07/06 08:31:17;;;;;;;25.73;9.30;;;29.60;30.00;;;;;;5067520;28;20095;-64
2023/07/06 08:33:46;;;;;;;31.05;10.23;;;29.50;30.30;;;;;;5043733;28;20575;-64
2023/07/06 08:36:15;;;;;;;24.92;9.80;;;29.40;31.40;;;;;;5065836;28;20176;-63
2023/07/06 08:38:43;;;;;;;25.48;9.90;;;29.50;31.40;;;;;;5050853;28;20078;-65
2023/07/06 08:41:29;;;;;;;18.83;9.10;;;29.40;30.90;;;;;;5061642;28;20217;-63
2023/07/06 08:44:01;;;;;;;23.90;9.50;;;29.40;31.20;;;;;;5065418;28;20120;-64
2023/07/06 08:46:38;;;;;;;26.67;8.65;;;29.30;31.00;;;;;;5061398;28;20115;-64
2023/07/06 08:49:32;;;;;;;21.15;9.02;;;29.20;31.00;;;;;;5062547;28;20079;-64
2023/07/06 08:52:03;;;;;;;21.75;9.32;;;29.20;31.30;;;;;;5068044;28;20087;-66
2023/07/06 08:54:33;;;;;;;18.35;8.10;;;29.20;31.00;;;;;;5067702;28;20075;-64
2023/07/06 08:57:01;;;;;;;21.45;8.18;;;29.10;32.30;;;;;;5064844;28;20208;-66
2023/07/06 08:59:36;;;;;;;32.53;9.75;;;29.10;32.60;;;;;;5066171;28;20074;-64
2023/07/06 09:02:10;;;;;;;18.63;8.40;;;29.10;32.40;;;;;;5060723;28;20166;-65
2023/07/06 09:04:37;;;;;;;24.42;8.23;;;29.10;31.10;;;;;;5062313;28;20132;-66
2023/07/06 09:07:04;;;;;;;22.42;8.05;;;29.10;31.10;;;;;;5065757;28;20095;-65
2023/07/06 09:09:31;;;;;;;20.70;8.23;;;29.10;30.70;;;;;;5071630;28;20071;-64
2023/07/06 09:12:00;;;;;;;17.48;7.88;;;29.10;30.80;;;;;;5060618;28;20088;-65
2023/07/06 09:14:28;;;;;;;16.73;6.82;;;29.00;33.30;;;;;;5069489;28;20077;-63
2023/07/06 09:16:56;;;;;;;26.05;7.50;;;28.90;32.40;;;;;;5073066;28;20120;-64
2023/07/06 09:19:25;;;;;;;17.65;6.25;;;28.90;32.20;;;;;;5063860;28;20087;-62
2023/07/06 09:21:56;;;;;;;17.13;5.88;;;28.90;30.30;;;;;;5070678;28;20071;-64
2023/07/06 09:24:27;;;;;;;24.27;5.18;;;28.80;29.80;;;;;;5069202;28;20080;-65
2023/07/06 09:27:01;;;;;;;23.23;5.10;;;28.70;29.30;;;;;;5061780;28;20094;-65
2023/07/06 09:29:34;;;;;;;24.83;5.22;;;28.80;29.40;;;;;;5068681;28;20536;-65
2023/07/06 09:32:21;;;;;;;20.50;4.40;;;28.70;29.20;;;;;;5062062;28;20544;-65
2023/07/06 09:34:55;;;;;;;20.05;4.30;;;28.60;28.90;;;;;;5067350;28;20137;-65
2023/07/06 09:37:22;;;;;;;20.90;4.35;;;28.60;28.60;;;;;;5062048;28;20649;-65
2023/07/06 09:40:03;;;;;;;14.90;3.80;;;28.60;28.60;;;;;;5065388;28;20166;-66
2023/07/06 09:42:31;;;;;;;17.75;4.07;;;28.60;28.30;;;;;;5063011;28;20137;-65
2023/07/06 09:44:58;;;;;;;14.40;4.13;;;28.60;28.10;;;;;;5049217;28;20604;-65
2023/07/06 09:47:26;;;;;;;13.40;4.07;;;28.70;28.00;;;;;;5057660;28;20092;-64
2023/07/06 09:50:13;;;;;;;11.20;4.30;;;28.70;27.80;;;;;;5062115;28;20083;-66
2023/07/06 09:52:41;;;;;;;12.10;3.58;;;28.70;27.30;;;;;;5057438;28;20071;-57
2023/07/06 09:55:23;;;;;;;13.90;3.67;;;28.70;26.40;;;;;;5060743;28;20749;-66
2023/07/06 09:57:50;;;;;;;12.77;3.70;;;28.70;26.60;;;;;;5060572;28;20088;-64
2023/07/06 10:00:22;;;;;;;8.73;3.63;;;28.80;26.30;;;;;;5058376;28;20445;-66
2023/07/06 10:02:57;;;;;;;9.32;3.65;;;28.80;25.60;;;;;;5062966;28;20087;-62
2023/07/06 10:05:55;;;;;;;10.55;4.10;;;28.90;25.70;;;;;;5055832;28;20098;-63
2023/07/06 10:08:30;;;;;;;10.05;4.03;;;28.90;25.50;;;;;;5056530;28;21140;-65
2023/07/06 10:11:03;;;;;;;9.43;3.27;;;29.00;25.00;;;;;;5056797;28;20131;-64
2023/07/06 10:13:40;;;;;;;8.52;3.90;;;29.00;25.10;;;;;;5053456;28;20071;-65
2023/07/06 10:16:14;;;;;;;10.52;3.97;;;28.80;24.80;;;;;;5059782;28;20087;-64
2023/07/06 10:19:20;;;;;;;8.13;3.60;;;28.80;24.60;;;;;;5058129;28;20154;-66
2023/07/06 10:21:56;;;;;;;8.25;3.75;;;28.90;24.80;;;;;;5056310;28;20079;-63
2023/07/06 10:24:50;;;;;;;13.55;3.70;;;28.90;24.70;;;;;;5058456;28;20102;-64
2023/07/06 10:27:24;;;;;;;6.43;3.38;;;28.90;24.90;;;;;;5056685;28;20103;-63
2023/07/06 10:29:54;;;;;;;11.85;3.80;;;28.90;25.00;;;;;;5058048;28;20079;-66
2023/07/06 10:32:32;;;;;;;10.43;3.50;;;28.90;24.60;;;;;;5038368;28;20460;-65
2023/07/06 10:35:19;;;;;;;9.52;3.33;;;28.90;24.60;;;;;;5054909;28;20080;-65
2023/07/06 10:37:48;;;;;;;9.75;3.50;;;28.90;24.60;;;;;;5056655;28;20108;-66
2023/07/06 10:40:25;;;;;;;13.63;3.65;;;28.80;24.60;;;;;;5058321;28;20587;-64
2023/07/06 10:43:12;;;;;;;8.63;4.07;;;28.70;24.70;;;;;;5057433;28;20094;-64
2023/07/06 10:45:46;;;;;;;7.90;3.30;;;28.80;24.50;;;;;;5046241;28;20090;-66
2023/07/06 10:48:25;;;;;;;9.05;3.65;;;28.70;25.10;;;;;;5044740;28;20080;-64
2023/07/06 10:51:12;;;;;;;6.38;3.55;;;28.70;24.60;;;;;;5061530;28;20072;-64
2023/07/06 10:53:43;;;;;;;10.65;3.58;;;28.70;25.00;;;;;;5058821;28;20544;-64
2023/07/06 10:56:12;;;;;;;6.55;3.63;;;28.60;25.00;;;;;;5058460;28;20430;-64
2023/07/06 10:59:08;;;;;;;5.45;3.50;;;28.60;24.70;;;;;;5061752;28;20173;-64
2023/07/06 11:01:45;;;;;;;7.80;3.63;;;28.50;24.70;;;;;;5061479;28;20092;-63
2023/07/06 11:04:36;;;;;;;10.80;3.45;;;28.60;25.20;;;;;;5062479;28;20084;-66
2023/07/06 11:07:04;;;;;;;13.38;3.67;;;28.60;24.50;;;;;;5063735;28;20641;-63
2023/07/06 11:09:47;;;;;;;8.88;3.50;;;28.50;24.90;;;;;;5060910;28;20083;-64
2023/07/06 11:12:18;;;;;;;8.50;3.72;;;28.40;25.60;;;;;;5061120;28;20107;-65
2023/07/06 11:14:45;;;;;;;6.55;3.70;;;28.20;25.10;;;;;;5061203;28;20099;-65
2023/07/06 11:17:30;;;;;;;10.50;3.47;;;28.30;25.30;;;;;;5061334;28;20085;-64
2023/07/06 11:20:10;;;;;;;13.93;3.95;;;28.20;25.00;;;;;;5059737;28;20079;-66
2023/07/06 11:22:37;;;;;;;8.73;3.53;;;28.20;25.10;;;;;;5060695;28;20088;-64
2023/07/06 11:25:04;;;;;;;10.07;3.50;;;28.10;26.40;;;;;;5059672;28;20119;-64
2023/07/06 11:27:34;;;;;;;7.07;3.45;;;28.10;25.90;;;;;;5062335;28;20102;-64
2023/07/06 11:30:17;;;;;;;10.63;3.53;;;28.00;24.90;;;;;;5059223;28;20072;-64
2023/07/06 11:32:50;;;;;;;11.52;3.15;;;27.90;24.70;;;;;;5048463;28;20113;-64
2023/07/06 11:35:39;;;;;;;7.35;3.80;;;27.90;25.10;;;;;;5060638;28;20076;-65
2023/07/06 11:38:21;;;;;;;5.63;3.17;;;27.90;25.50;;;;;;5060459;28;20639;-65
2023/07/06 11:41:06;;;;;;;6.13;3.45;;;27.90;25.80;;;;;;5062082;28;20071;-66
2023/07/06 11:43:41;;;;;;;10.73;4.00;;;27.90;26.10;;;;;;5060635;28;20116;-64
2023/07/06 11:46:51;;;;;;;8.23;3.85;;;27.80;26.00;;;;;;5065623;28;20091;-65
2023/07/06 11:49:48;;;;;;;13.10;3.55;;;27.80;26.00;;;;;;5061416;28;20163;-64
2023/07/06 11:52:20;;;;;;;9.43;3.75;;;27.70;26.00;;;;;;5060736;28;20080;-64
2023/07/06 11:55:07;;;;;;;8.95;4.07;;;27.70;25.70;;;;;;5060746;28;20080;-64
2023/07/06 11:57:44;;;;;;;11.32;3.92;;;27.70;26.10;;;;;;5058991;28;20524;-66
2023/07/06 12:02:49;;;;;;;7.47;3.40;;;27.60;26.20;;;;;;5058154;28;20171;-63
2023/07/06 12:05:36;;;;;;;11.25;4.00;;;27.50;26.30;;;;;;5057055;28;20566;-64
2023/07/06 12:08:14;;;;;;;12.63;3.92;;;27.40;26.20;;;;;;5057019;28;20086;-65
2023/07/06 12:10:45;;;;;;;8.65;3.58;;;27.30;26.30;;;;;;5058427;28;20092;-65
2023/07/06 12:13:25;;;;;;;13.25;4.20;;;27.30;26.40;;;;;;5061227;28;20536;-64
2023/07/06 12:16:24;;;;;;;9.18;3.97;;;27.30;26.60;;;;;;5060162;28;20559;-66
2023/07/06 12:19:17;;;;;;;19.25;3.60;;;27.30;26.20;;;;;;5055227;28;20107;-63
2023/07/06 12:21:50;;;;;;;9.35;3.40;;;27.30;25.90;;;;;;5063448;28;20675;-64
2023/07/06 12:24:22;;;;;;;9.20;3.55;;;27.30;25.90;;;;;;5061971;28;20097;-63
2023/07/06 12:26:53;;;;;;;5.68;3.10;;;27.30;26.00;;;;;;5059850;28;20197;-65
2023/07/06 12:29:23;;;;;;;8.73;3.20;;;27.20;26.00;;;;;;5059911;28;20072;-66
2023/07/06 12:31:52;;;;;;;12.52;4.22;;;27.20;26.00;;;;;;5058966;28;20083;-66
2023/07/06 12:34:24;;;;;;;20.98;5.65;;;27.20;27.00;;;;;;5059418;28;20090;-65
2023/07/06 12:37:00;;;;;;;20.77;5.90;;;27.10;27.80;;;;;;5060525;28;20084;-65
2023/07/06 12:39:30;;;;;;;18.58;5.78;;;27.10;28.50;;;;;;5059111;28;20079;-64
2023/07/06 12:41:56;;;;;;;19.83;5.35;;;27.00;29.40;;;;;;5060941;28;20084;-63
2023/07/06 12:44:27;;;;;;;19.65;6.05;;;26.90;29.00;;;;;;5068476;28;20138;-64
2023/07/06 12:47:01;;;;;;;23.63;5.85;;;26.80;28.80;;;;;;5068803;28;20107;-65
2023/07/06 12:49:29;;;;;;;20.25;5.90;;;26.80;28.90;;;;;;5070596;28;20079;-64
2023/07/06 12:51:58;;;;;;;14.85;5.10;;;26.70;29.30;;;;;;5070155;28;20614;-65
2023/07/06 12:54:29;;;;;;;28.13;6.15;;;26.70;29.20;;;;;;5068913;28;20455;-65
2023/07/06 12:57:02;;;;;;;21.88;5.95;;;26.60;29.70;;;;;;5070192;28;20091;-64
2023/07/06 12:59:36;;;;;;;38.08;6.43;;;26.50;29.70;;;;;;5069072;28;20087;-65
2023/07/06 13:02:23;;;;;;;39.35;6.40;;;26.40;30.00;;;;;;5070572;28;20619;-62
2023/07/06 13:04:51;;;;;;;30.70;5.45;;;26.40;30.00;;;;;;5068633;28;20111;-65
2023/07/06 13:07:25;;;;;;;36.92;5.80;;;26.30;31.20;;;;;;5069906;28;20195;-63